Airfield :
LOGIN :

Register | Disclaimer

   EN    FR    IT 

 










Legend :    VFR   Marginal VFR   IFR   Intensive IFR   Very Intensive IFR
Visi :
Ceiling :
>= 8 km
>= 3000ft
5 to 8 km
1000 to 3000 ft
1500m to 5 km
500 to 1000 ft
800 to 1500m
200 to 500 ft
< 800m
< 200 ft
Symbols :   Thunderstorms  Fog  Heavy snow  Heavy precipitations  Wind > 20 kt
SIGMETs :     Misc.  Thunderstorms  Icing  Turbulence  Mountain Waves  Volcanic Ashes






- Airport Elevation : 56 ft
- IATA code : BZR


LFMU - Beziers / Vias

CURRENT METAR :
  • 291130Z AUTO 26011KT 9999 BKN043 BKN050 20/11 Q1002 TEMPO SHRA FEW040CB BKN050 BECMG 26015G25KT

EXPIRED METARs :
  • 291100Z AUTO 27007KT 230V300 9999 BKN037 BKN044 BKN140 19/11 Q1003 TEMPO SHRA FEW040CB BKN050 BECMG 26015G25KT
  • 291030Z AUTO 27007KT 230V330 CAVOK 19/11 Q1003 TEMPO SHRA FEW040CB BKN050 BECMG 26015G25KT
  • 291000Z AUTO 28007KT 260V320 CAVOK 19/11 Q1003 BECMG 26015G25KT
  • 290930Z AUTO 30008KT 270V340 CAVOK 19/10 Q1003 BECMG 26015G25KT
  • 290900Z AUTO 30011KT 270V330 CAVOK 19/10 Q1003 BECMG 26015G25KT

TAF TAF LFMU
Valid from the 29 at 09:00 until the 30 at 09:00 UTC


290800Z 2909/3009 26015G25KT CAVOK
TEMPO 2912/3003 SHRA FEW040CB BKN050
ATIS : +33 4 67 90 88 88



MET'MAP, your aeronautical weather chart ! - Copyright ORBIFLY December 2007 - Disclaimer

ORBIFLY MET'MAP TEAM :

Programming & Development : Alexandra Zaïnal
Original concept : Baudouin d'Aumeries
Technical & hardware support : Manuel Goepfert
Assistance : Marc-Olivier Méhu




SOURCES & CREDITS :

   NOAA